sensor_id;sensor_type;location;lat;lon;timestamp;P1;durP1;ratioP1;P2;durP2;ratioP2
34571;SDS011;20808;48.974;8.452;2022-11-15T00:01:12;15.40;;;9.30;;
34571;SDS011;20808;48.974;8.452;2022-11-15T00:03:42;16.17;;;8.33;;
34571;SDS011;20808;48.974;8.452;2022-11-15T00:06:09;12.03;;;8.77;;
34571;SDS011;20808;48.974;8.452;2022-11-15T00:08:36;16.20;;;8.90;;
34571;SDS011;20808;48.974;8.452;2022-11-15T00:11:04;14.17;;;9.60;;
34571;SDS011;20808;48.974;8.452;2022-11-15T00:13:31;14.47;;;8.70;;
34571;SDS011;20808;48.974;8.452;2022-11-15T00:15:58;12.37;;;8.93;;
34571;SDS011;20808;48.974;8.452;2022-11-15T00:18:25;15.33;;;8.80;;
34571;SDS011;20808;48.974;8.452;2022-11-15T00:20:53;10.70;;;7.53;;
34571;SDS011;20808;48.974;8.452;2022-11-15T00:23:21;13.53;;;7.47;;
34571;SDS011;20808;48.974;8.452;2022-11-15T00:25:54;12.70;;;7.33;;
34571;SDS011;20808;48.974;8.452;2022-11-15T00:28:23;12.57;;;7.60;;
34571;SDS011;20808;48.974;8.452;2022-11-15T00:30:50;12.50;;;7.07;;
34571;SDS011;20808;48.974;8.452;2022-11-15T00:33:16;11.43;;;8.10;;
34571;SDS011;20808;48.974;8.452;2022-11-15T00:35:43;15.47;;;8.00;;
34571;SDS011;20808;48.974;8.452;2022-11-15T00:38:10;11.23;;;7.40;;
34571;SDS011;20808;48.974;8.452;2022-11-15T00:40:37;9.70;;;7.10;;
34571;SDS011;20808;48.974;8.452;2022-11-15T00:43:04;14.70;;;7.70;;
34571;SDS011;20808;48.974;8.452;2022-11-15T00:45:32;12.60;;;8.27;;
34571;SDS011;20808;48.974;8.452;2022-11-15T00:47:59;15.07;;;8.20;;
34571;SDS011;20808;48.974;8.452;2022-11-15T00:50:25;16.97;;;8.17;;
34571;SDS011;20808;48.974;8.452;2022-11-15T00:52:52;11.30;;;8.33;;
34571;SDS011;20808;48.974;8.452;2022-11-15T00:55:19;12.40;;;8.20;;
34571;SDS011;20808;48.974;8.452;2022-11-15T00:57:46;11.17;;;7.43;;
34571;SDS011;20808;48.974;8.452;2022-11-15T01:00:13;11.20;;;7.80;;
34571;SDS011;20808;48.974;8.452;2022-11-15T01:02:41;15.03;;;7.47;;
34571;SDS011;20808;48.974;8.452;2022-11-15T01:05:08;11.80;;;8.43;;
34571;SDS011;20808;48.974;8.452;2022-11-15T01:07:35;12.47;;;7.40;;
34571;SDS011;20808;48.974;8.452;2022-11-15T01:10:02;17.80;;;10.10;;
34571;SDS011;20808;48.974;8.452;2022-11-15T01:12:29;20.30;;;11.90;;
34571;SDS011;20808;48.974;8.452;2022-11-15T01:14:56;17.47;;;10.53;;
34571;SDS011;20808;48.974;8.452;2022-11-15T01:17:23;17.53;;;10.60;;
34571;SDS011;20808;48.974;8.452;2022-11-15T01:19:52;13.87;;;8.83;;
34571;SDS011;20808;48.974;8.452;2022-11-15T01:22:18;19.73;;;12.20;;
34571;SDS011;20808;48.974;8.452;2022-11-15T01:24:45;10.87;;;7.67;;
34571;SDS011;20808;48.974;8.452;2022-11-15T01:27:12;13.93;;;8.13;;
34571;SDS011;20808;48.974;8.452;2022-11-15T01:29:39;12.40;;;7.10;;
34571;SDS011;20808;48.974;8.452;2022-11-15T01:32:05;12.73;;;7.23;;
34571;SDS011;20808;48.974;8.452;2022-11-15T01:34:32;10.00;;;6.20;;
34571;SDS011;20808;48.974;8.452;2022-11-15T01:37:00;12.10;;;7.20;;
34571;SDS011;20808;48.974;8.452;2022-11-15T01:39:27;12.87;;;7.60;;
34571;SDS011;20808;48.974;8.452;2022-11-15T01:41:54;10.70;;;7.17;;
34571;SDS011;20808;48.974;8.452;2022-11-15T01:47:08;12.47;;;5.63;;
34571;SDS011;20808;48.974;8.452;2022-11-15T01:49:39;11.50;;;5.93;;
34571;SDS011;20808;48.974;8.452;2022-11-15T01:52:16;9.10;;;6.13;;
34571;SDS011;20808;48.974;8.452;2022-11-15T01:54:46;8.43;;;5.67;;
34571;SDS011;20808;48.974;8.452;2022-11-15T01:57:14;9.03;;;5.73;;
34571;SDS011;20808;48.974;8.452;2022-11-15T01:59:42;11.40;;;6.00;;
34571;SDS011;20808;48.974;8.452;2022-11-15T02:02:10;9.70;;;5.43;;
34571;SDS011;20808;48.974;8.452;2022-11-15T02:04:39;10.70;;;5.67;;
34571;SDS011;20808;48.974;8.452;2022-11-15T02:07:08;7.57;;;5.17;;
34571;SDS011;20808;48.974;8.452;2022-11-15T02:09:38;11.43;;;6.30;;
34571;SDS011;20808;48.974;8.452;2022-11-15T02:12:06;7.00;;;4.70;;
34571;SDS011;20808;48.974;8.452;2022-11-15T02:14:35;10.23;;;5.63;;
34571;SDS011;20808;48.974;8.452;2022-11-15T02:17:06;9.50;;;5.87;;
34571;SDS011;20808;48.974;8.452;2022-11-15T02:19:54;8.60;;;5.90;;
34571;SDS011;20808;48.974;8.452;2022-11-15T02:22:43;7.97;;;6.23;;
34571;SDS011;20808;48.974;8.452;2022-11-15T02:25:30;9.20;;;6.30;;
34571;SDS011;20808;48.974;8.452;2022-11-15T02:31:09;8.63;;;5.27;;
34571;SDS011;20808;48.974;8.452;2022-11-15T02:33:41;7.83;;;5.67;;
34571;SDS011;20808;48.974;8.452;2022-11-15T02:36:15;8.50;;;5.17;;
34571;SDS011;20808;48.974;8.452;2022-11-15T02:38:52;7.73;;;4.70;;
34571;SDS011;20808;48.974;8.452;2022-11-15T02:41:26;8.67;;;4.77;;
34571;SDS011;20808;48.974;8.452;2022-11-15T02:43:59;8.27;;;4.83;;
34571;SDS011;20808;48.974;8.452;2022-11-15T02:46:31;5.87;;;4.53;;
34571;SDS011;20808;48.974;8.452;2022-11-15T02:49:19;12.23;;;4.53;;
34571;SDS011;20808;48.974;8.452;2022-11-15T02:51:46;8.50;;;5.60;;
34571;SDS011;20808;48.974;8.452;2022-11-15T02:54:15;7.33;;;4.73;;
34571;SDS011;20808;48.974;8.452;2022-11-15T02:56:46;7.77;;;4.70;;
34571;SDS011;20808;48.974;8.452;2022-11-15T02:59:28;9.17;;;5.10;;
34571;SDS011;20808;48.974;8.452;2022-11-15T03:02:08;6.67;;;4.53;;
34571;SDS011;20808;48.974;8.452;2022-11-15T03:04:51;5.87;;;4.10;;
34571;SDS011;20808;48.974;8.452;2022-11-15T03:07:22;9.60;;;4.27;;
34571;SDS011;20808;48.974;8.452;2022-11-15T03:09:57;5.37;;;3.90;;
34571;SDS011;20808;48.974;8.452;2022-11-15T03:12:34;8.63;;;4.00;;
34571;SDS011;20808;48.974;8.452;2022-11-15T03:15:05;4.87;;;3.57;;
34571;SDS011;20808;48.974;8.452;2022-11-15T03:17:37;7.63;;;3.97;;
34571;SDS011;20808;48.974;8.452;2022-11-15T03:20:07;7.03;;;3.73;;
34571;SDS011;20808;48.974;8.452;2022-11-15T03:22:37;5.67;;;3.30;;
34571;SDS011;20808;48.974;8.452;2022-11-15T03:25:08;6.17;;;3.20;;
34571;SDS011;20808;48.974;8.452;2022-11-15T03:27:40;5.23;;;3.40;;
34571;SDS011;20808;48.974;8.452;2022-11-15T03:30:10;7.40;;;3.50;;
34571;SDS011;20808;48.974;8.452;2022-11-15T03:32:41;8.27;;;3.77;;
34571;SDS011;20808;48.974;8.452;2022-11-15T03:35:12;6.43;;;3.77;;
34571;SDS011;20808;48.974;8.452;2022-11-15T03:37:44;5.10;;;3.60;;
34571;SDS011;20808;48.974;8.452;2022-11-15T03:40:15;4.80;;;3.33;;
34571;SDS011;20808;48.974;8.452;2022-11-15T03:42:43;4.50;;;3.80;;
34571;SDS011;20808;48.974;8.452;2022-11-15T03:45:17;5.53;;;3.77;;
34571;SDS011;20808;48.974;8.452;2022-11-15T03:47:51;6.30;;;3.63;;
34571;SDS011;20808;48.974;8.452;2022-11-15T03:50:24;5.00;;;3.40;;
34571;SDS011;20808;48.974;8.452;2022-11-15T03:52:52;5.83;;;3.67;;
34571;SDS011;20808;48.974;8.452;2022-11-15T03:55:21;4.60;;;3.40;;
34571;SDS011;20808;48.974;8.452;2022-11-15T03:57:49;6.83;;;4.03;;
34571;SDS011;20808;48.974;8.452;2022-11-15T04:00:19;6.23;;;3.60;;
34571;SDS011;20808;48.974;8.452;2022-11-15T04:02:46;5.80;;;4.13;;
34571;SDS011;20808;48.974;8.452;2022-11-15T04:05:14;6.30;;;4.10;;
34571;SDS011;20808;48.974;8.452;2022-11-15T04:07:41;7.10;;;3.77;;
34571;SDS011;20808;48.974;8.452;2022-11-15T04:10:08;10.33;;;4.43;;
34571;SDS011;20808;48.974;8.452;2022-11-15T04:12:39;7.60;;;3.80;;
34571;SDS011;20808;48.974;8.452;2022-11-15T04:15:09;6.40;;;4.33;;
34571;SDS011;20808;48.974;8.452;2022-11-15T04:17:37;4.80;;;3.57;;
34571;SDS011;20808;48.974;8.452;2022-11-15T04:20:07;6.37;;;3.77;;
34571;SDS011;20808;48.974;8.452;2022-11-15T04:22:55;7.13;;;4.30;;
34571;SDS011;20808;48.974;8.452;2022-11-15T04:25:40;8.73;;;4.80;;
34571;SDS011;20808;48.974;8.452;2022-11-15T04:28:07;7.73;;;4.23;;
34571;SDS011;20808;48.974;8.452;2022-11-15T04:30:34;12.97;;;11.63;;
34571;SDS011;20808;48.974;8.452;2022-11-15T04:33:01;10.00;;;5.40;;
34571;SDS011;20808;48.974;8.452;2022-11-15T04:35:28;7.20;;;4.97;;
34571;SDS011;20808;48.974;8.452;2022-11-15T04:37:57;8.70;;;5.13;;
34571;SDS011;20808;48.974;8.452;2022-11-15T04:40:23;7.20;;;4.73;;
34571;SDS011;20808;48.974;8.452;2022-11-15T04:42:50;6.43;;;4.20;;
34571;SDS011;20808;48.974;8.452;2022-11-15T04:45:17;7.63;;;4.70;;
34571;SDS011;20808;48.974;8.452;2022-11-15T04:47:43;9.40;;;4.73;;
34571;SDS011;20808;48.974;8.452;2022-11-15T04:50:11;7.20;;;4.73;;
34571;SDS011;20808;48.974;8.452;2022-11-15T04:52:39;7.50;;;6.10;;
34571;SDS011;20808;48.974;8.452;2022-11-15T04:55:08;8.17;;;5.77;;
34571;SDS011;20808;48.974;8.452;2022-11-15T04:57:35;7.33;;;4.47;;
34571;SDS011;20808;48.974;8.452;2022-11-15T05:00:03;8.10;;;4.53;;
34571;SDS011;20808;48.974;8.452;2022-11-15T05:02:31;8.43;;;4.50;;
34571;SDS011;20808;48.974;8.452;2022-11-15T05:05:12;6.40;;;5.07;;
34571;SDS011;20808;48.974;8.452;2022-11-15T05:07:39;11.30;;;5.20;;
34571;SDS011;20808;48.974;8.452;2022-11-15T05:10:08;7.03;;;4.70;;
34571;SDS011;20808;48.974;8.452;2022-11-15T05:12:35;8.80;;;4.93;;
34571;SDS011;20808;48.974;8.452;2022-11-15T05:15:02;8.73;;;5.13;;
34571;SDS011;20808;48.974;8.452;2022-11-15T05:17:29;7.63;;;4.97;;
34571;SDS011;20808;48.974;8.452;2022-11-15T05:19:56;9.00;;;5.90;;
34571;SDS011;20808;48.974;8.452;2022-11-15T05:22:22;8.73;;;5.20;;
34571;SDS011;20808;48.974;8.452;2022-11-15T05:24:49;8.93;;;5.83;;
34571;SDS011;20808;48.974;8.452;2022-11-15T05:27:17;7.37;;;5.27;;
34571;SDS011;20808;48.974;8.452;2022-11-15T05:29:44;10.70;;;6.17;;
34571;SDS011;20808;48.974;8.452;2022-11-15T05:32:11;9.23;;;5.70;;
34571;SDS011;20808;48.974;8.452;2022-11-15T05:34:38;6.60;;;5.43;;
34571;SDS011;20808;48.974;8.452;2022-11-15T05:37:05;11.90;;;5.97;;
34571;SDS011;20808;48.974;8.452;2022-11-15T05:39:32;13.00;;;6.63;;
34571;SDS011;20808;48.974;8.452;2022-11-15T05:41:59;13.40;;;6.63;;
34571;SDS011;20808;48.974;8.452;2022-11-15T05:44:33;12.13;;;7.43;;
34571;SDS011;20808;48.974;8.452;2022-11-15T05:47:02;10.73;;;6.97;;
34571;SDS011;20808;48.974;8.452;2022-11-15T05:49:32;10.50;;;7.03;;
34571;SDS011;20808;48.974;8.452;2022-11-15T05:52:02;10.33;;;6.87;;
34571;SDS011;20808;48.974;8.452;2022-11-15T05:54:31;11.30;;;7.30;;
34571;SDS011;20808;48.974;8.452;2022-11-15T05:56:58;12.50;;;7.40;;
34571;SDS011;20808;48.974;8.452;2022-11-15T05:59:27;12.50;;;7.80;;
34571;SDS011;20808;48.974;8.452;2022-11-15T06:01:56;12.47;;;7.23;;
34571;SDS011;20808;48.974;8.452;2022-11-15T06:04:23;13.03;;;7.77;;
34571;SDS011;20808;48.974;8.452;2022-11-15T06:06:50;10.10;;;6.40;;
34571;SDS011;20808;48.974;8.452;2022-11-15T06:09:17;15.50;;;7.60;;
34571;SDS011;20808;48.974;8.452;2022-11-15T06:11:43;11.60;;;6.90;;
34571;SDS011;20808;48.974;8.452;2022-11-15T06:14:10;11.47;;;7.10;;
34571;SDS011;20808;48.974;8.452;2022-11-15T06:16:37;13.13;;;7.50;;
34571;SDS011;20808;48.974;8.452;2022-11-15T06:19:05;11.77;;;7.53;;
34571;SDS011;20808;48.974;8.452;2022-11-15T06:21:32;14.50;;;7.63;;
34571;SDS011;20808;48.974;8.452;2022-11-15T06:23:59;12.10;;;7.20;;
34571;SDS011;20808;48.974;8.452;2022-11-15T06:26:26;14.60;;;7.07;;
34571;SDS011;20808;48.974;8.452;2022-11-15T06:28:53;12.30;;;7.63;;
34571;SDS011;20808;48.974;8.452;2022-11-15T06:31:19;12.50;;;7.40;;
34571;SDS011;20808;48.974;8.452;2022-11-15T06:33:46;14.50;;;7.93;;
34571;SDS011;20808;48.974;8.452;2022-11-15T06:36:15;19.10;;;8.90;;
34571;SDS011;20808;48.974;8.452;2022-11-15T06:38:43;16.07;;;8.70;;
34571;SDS011;20808;48.974;8.452;2022-11-15T06:41:10;13.70;;;9.17;;
34571;SDS011;20808;48.974;8.452;2022-11-15T06:43:39;15.87;;;9.47;;
34571;SDS011;20808;48.974;8.452;2022-11-15T06:46:06;13.60;;;8.23;;
34571;SDS011;20808;48.974;8.452;2022-11-15T06:48:33;14.80;;;8.30;;
34571;SDS011;20808;48.974;8.452;2022-11-15T06:51:01;16.60;;;9.20;;
34571;SDS011;20808;48.974;8.452;2022-11-15T06:53:31;15.23;;;8.50;;
34571;SDS011;20808;48.974;8.452;2022-11-15T06:55:58;15.90;;;8.53;;
34571;SDS011;20808;48.974;8.452;2022-11-15T06:58:26;13.80;;;7.70;;
34571;SDS011;20808;48.974;8.452;2022-11-15T07:00:57;16.53;;;8.37;;
34571;SDS011;20808;48.974;8.452;2022-11-15T07:03:25;14.67;;;8.80;;
34571;SDS011;20808;48.974;8.452;2022-11-15T07:05:52;16.07;;;8.30;;
34571;SDS011;20808;48.974;8.452;2022-11-15T07:08:20;12.93;;;7.10;;
34571;SDS011;20808;48.974;8.452;2022-11-15T07:10:49;19.43;;;6.80;;
34571;SDS011;20808;48.974;8.452;2022-11-15T07:13:16;12.47;;;6.70;;
34571;SDS011;20808;48.974;8.452;2022-11-15T07:15:43;9.10;;;5.67;;
34571;SDS011;20808;48.974;8.452;2022-11-15T07:18:10;7.93;;;5.20;;
34571;SDS011;20808;48.974;8.452;2022-11-15T07:20:37;10.20;;;6.10;;
34571;SDS011;20808;48.974;8.452;2022-11-15T07:23:05;10.03;;;6.13;;
34571;SDS011;20808;48.974;8.452;2022-11-15T07:25:32;12.27;;;6.20;;
34571;SDS011;20808;48.974;8.452;2022-11-15T07:28:00;13.50;;;5.27;;
34571;SDS011;20808;48.974;8.452;2022-11-15T07:30:27;7.30;;;4.90;;
34571;SDS011;20808;48.974;8.452;2022-11-15T07:32:54;13.63;;;6.20;;
34571;SDS011;20808;48.974;8.452;2022-11-15T07:35:21;11.43;;;5.53;;
34571;SDS011;20808;48.974;8.452;2022-11-15T07:37:54;11.60;;;6.63;;
34571;SDS011;20808;48.974;8.452;2022-11-15T07:40:22;8.97;;;5.90;;
34571;SDS011;20808;48.974;8.452;2022-11-15T07:42:49;11.80;;;6.47;;
34571;SDS011;20808;48.974;8.452;2022-11-15T07:45:20;12.10;;;5.60;;
34571;SDS011;20808;48.974;8.452;2022-11-15T07:47:48;10.83;;;5.23;;
34571;SDS011;20808;48.974;8.452;2022-11-15T07:50:15;6.57;;;4.67;;
34571;SDS011;20808;48.974;8.452;2022-11-15T07:52:42;7.23;;;4.83;;
34571;SDS011;20808;48.974;8.452;2022-11-15T07:55:09;8.77;;;5.60;;
34571;SDS011;20808;48.974;8.452;2022-11-15T07:57:36;7.70;;;5.73;;
34571;SDS011;20808;48.974;8.452;2022-11-15T08:00:03;6.80;;;4.57;;
34571;SDS011;20808;48.974;8.452;2022-11-15T08:02:32;8.20;;;5.43;;
34571;SDS011;20808;48.974;8.452;2022-11-15T08:04:59;10.33;;;6.00;;
34571;SDS011;20808;48.974;8.452;2022-11-15T08:07:28;7.10;;;4.90;;
34571;SDS011;20808;48.974;8.452;2022-11-15T08:09:55;9.10;;;4.53;;
34571;SDS011;20808;48.974;8.452;2022-11-15T08:12:22;7.47;;;4.70;;
34571;SDS011;20808;48.974;8.452;2022-11-15T08:14:48;5.80;;;4.50;;
34571;SDS011;20808;48.974;8.452;2022-11-15T08:17:15;7.33;;;5.40;;
34571;SDS011;20808;48.974;8.452;2022-11-15T08:19:43;8.27;;;4.90;;
34571;SDS011;20808;48.974;8.452;2022-11-15T08:22:10;5.57;;;4.00;;
34571;SDS011;20808;48.974;8.452;2022-11-15T08:24:37;9.63;;;4.30;;
34571;SDS011;20808;48.974;8.452;2022-11-15T08:27:04;8.47;;;4.30;;
34571;SDS011;20808;48.974;8.452;2022-11-15T08:29:39;7.43;;;5.20;;
34571;SDS011;20808;48.974;8.452;2022-11-15T08:32:07;8.13;;;4.70;;
34571;SDS011;20808;48.974;8.452;2022-11-15T08:34:34;7.00;;;4.37;;
34571;SDS011;20808;48.974;8.452;2022-11-15T08:37:02;7.90;;;4.50;;
34571;SDS011;20808;48.974;8.452;2022-11-15T08:39:29;8.67;;;4.43;;
34571;SDS011;20808;48.974;8.452;2022-11-15T08:41:56;6.50;;;4.17;;
34571;SDS011;20808;48.974;8.452;2022-11-15T08:44:23;8.23;;;4.00;;
34571;SDS011;20808;48.974;8.452;2022-11-15T08:46:50;8.63;;;4.53;;
34571;SDS011;20808;48.974;8.452;2022-11-15T08:49:16;6.80;;;4.50;;
34571;SDS011;20808;48.974;8.452;2022-11-15T08:51:44;7.67;;;4.70;;
34571;SDS011;20808;48.974;8.452;2022-11-15T08:54:13;9.77;;;5.10;;
34571;SDS011;20808;48.974;8.452;2022-11-15T08:56:39;7.90;;;5.03;;
34571;SDS011;20808;48.974;8.452;2022-11-15T08:59:06;9.50;;;5.50;;
34571;SDS011;20808;48.974;8.452;2022-11-15T09:01:33;9.83;;;5.80;;
34571;SDS011;20808;48.974;8.452;2022-11-15T09:04:00;9.30;;;6.37;;
34571;SDS011;20808;48.974;8.452;2022-11-15T09:06:27;10.47;;;5.87;;
34571;SDS011;20808;48.974;8.452;2022-11-15T09:08:53;8.10;;;5.33;;
34571;SDS011;20808;48.974;8.452;2022-11-15T09:11:22;9.77;;;5.60;;
34571;SDS011;20808;48.974;8.452;2022-11-15T09:13:49;11.70;;;6.87;;
34571;SDS011;20808;48.974;8.452;2022-11-15T09:16:16;16.90;;;6.33;;
34571;SDS011;20808;48.974;8.452;2022-11-15T09:18:43;10.83;;;6.10;;
34571;SDS011;20808;48.974;8.452;2022-11-15T09:21:10;8.90;;;5.83;;
34571;SDS011;20808;48.974;8.452;2022-11-15T09:23:37;10.20;;;5.80;;
34571;SDS011;20808;48.974;8.452;2022-11-15T09:26:04;8.90;;;4.90;;
34571;SDS011;20808;48.974;8.452;2022-11-15T09:28:33;5.07;;;4.07;;
34571;SDS011;20808;48.974;8.452;2022-11-15T09:31:01;7.13;;;4.40;;
34571;SDS011;20808;48.974;8.452;2022-11-15T09:33:29;5.80;;;3.90;;
34571;SDS011;20808;48.974;8.452;2022-11-15T09:35:59;7.30;;;4.63;;
34571;SDS011;20808;48.974;8.452;2022-11-15T09:38:26;6.10;;;4.47;;
34571;SDS011;20808;48.974;8.452;2022-11-15T09:40:57;9.43;;;4.87;;
34571;SDS011;20808;48.974;8.452;2022-11-15T09:43:42;6.40;;;4.40;;
34571;SDS011;20808;48.974;8.452;2022-11-15T09:46:17;7.10;;;4.50;;
34571;SDS011;20808;48.974;8.452;2022-11-15T09:48:50;7.27;;;4.23;;
34571;SDS011;20808;48.974;8.452;2022-11-15T09:51:25;7.03;;;4.30;;
34571;SDS011;20808;48.974;8.452;2022-11-15T09:54:04;7.30;;;4.13;;
34571;SDS011;20808;48.974;8.452;2022-11-15T09:56:36;7.60;;;4.37;;
34571;SDS011;20808;48.974;8.452;2022-11-15T09:59:17;5.70;;;4.03;;
34571;SDS011;20808;48.974;8.452;2022-11-15T10:01:55;5.50;;;4.00;;
34571;SDS011;20808;48.974;8.452;2022-11-15T10:04:28;6.70;;;4.30;;
34571;SDS011;20808;48.974;8.452;2022-11-15T10:09:42;4.90;;;3.93;;
34571;SDS011;20808;48.974;8.452;2022-11-15T10:12:14;6.27;;;3.83;;
34571;SDS011;20808;48.974;8.452;2022-11-15T10:14:43;10.93;;;4.70;;
34571;SDS011;20808;48.974;8.452;2022-11-15T10:17:19;7.37;;;4.83;;
34571;SDS011;20808;48.974;8.452;2022-11-15T10:19:56;8.70;;;4.93;;
34571;SDS011;20808;48.974;8.452;2022-11-15T10:22:35;6.40;;;4.40;;
34571;SDS011;20808;48.974;8.452;2022-11-15T10:27:55;6.47;;;5.03;;
34571;SDS011;20808;48.974;8.452;2022-11-15T10:30:31;10.73;;;5.27;;
34571;SDS011;20808;48.974;8.452;2022-11-15T10:33:00;8.80;;;4.40;;
34571;SDS011;20808;48.974;8.452;2022-11-15T10:35:38;10.77;;;5.47;;
34571;SDS011;20808;48.974;8.452;2022-11-15T10:38:05;7.23;;;4.70;;
34571;SDS011;20808;48.974;8.452;2022-11-15T10:40:34;7.97;;;4.50;;
34571;SDS011;20808;48.974;8.452;2022-11-15T10:43:05;7.60;;;4.83;;
34571;SDS011;20808;48.974;8.452;2022-11-15T10:45:43;6.00;;;4.70;;
34571;SDS011;20808;48.974;8.452;2022-11-15T10:48:21;5.43;;;4.93;;
34571;SDS011;20808;48.974;8.452;2022-11-15T10:50:50;8.43;;;4.80;;
34571;SDS011;20808;48.974;8.452;2022-11-15T10:53:21;11.20;;;5.73;;
34571;SDS011;20808;48.974;8.452;2022-11-15T10:55:58;7.90;;;4.53;;
34571;SDS011;20808;48.974;8.452;2022-11-15T10:58:32;7.00;;;4.60;;
34571;SDS011;20808;48.974;8.452;2022-11-15T11:01:10;9.00;;;4.53;;
34571;SDS011;20808;48.974;8.452;2022-11-15T11:03:39;8.00;;;5.10;;
34571;SDS011;20808;48.974;8.452;2022-11-15T11:06:09;9.77;;;5.40;;
34571;SDS011;20808;48.974;8.452;2022-11-15T11:08:38;7.90;;;5.57;;
34571;SDS011;20808;48.974;8.452;2022-11-15T11:11:05;8.00;;;5.03;;
34571;SDS011;20808;48.974;8.452;2022-11-15T11:13:34;7.50;;;4.90;;
34571;SDS011;20808;48.974;8.452;2022-11-15T11:16:17;7.33;;;5.17;;
34571;SDS011;20808;48.974;8.452;2022-11-15T11:18:56;11.10;;;5.40;;
34571;SDS011;20808;48.974;8.452;2022-11-15T11:21:32;9.17;;;5.53;;
34571;SDS011;20808;48.974;8.452;2022-11-15T11:24:08;9.23;;;6.20;;
34571;SDS011;20808;48.974;8.452;2022-11-15T11:26:42;9.50;;;7.30;;
34571;SDS011;20808;48.974;8.452;2022-11-15T11:29:20;10.53;;;5.93;;
34571;SDS011;20808;48.974;8.452;2022-11-15T11:32:01;7.57;;;5.20;;
34571;SDS011;20808;48.974;8.452;2022-11-15T11:34:43;8.63;;;5.47;;
34571;SDS011;20808;48.974;8.452;2022-11-15T11:37:17;13.40;;;7.40;;
34571;SDS011;20808;48.974;8.452;2022-11-15T11:39:54;7.93;;;5.70;;
34571;SDS011;20808;48.974;8.452;2022-11-15T11:42:33;7.50;;;5.40;;
34571;SDS011;20808;48.974;8.452;2022-11-15T11:45:11;10.90;;;5.50;;
34571;SDS011;20808;48.974;8.452;2022-11-15T11:47:47;7.27;;;4.97;;
34571;SDS011;20808;48.974;8.452;2022-11-15T11:50:25;5.40;;;4.17;;
34571;SDS011;20808;48.974;8.452;2022-11-15T11:52:55;6.20;;;3.50;;
34571;SDS011;20808;48.974;8.452;2022-11-15T11:55:24;9.70;;;3.33;;
34571;SDS011;20808;48.974;8.452;2022-11-15T11:57:58;7.47;;;4.60;;
34571;SDS011;20808;48.974;8.452;2022-11-15T12:00:31;7.37;;;4.60;;
34571;SDS011;20808;48.974;8.452;2022-11-15T12:03:08;5.30;;;4.57;;
34571;SDS011;20808;48.974;8.452;2022-11-15T12:05:40;13.30;;;6.80;;
34571;SDS011;20808;48.974;8.452;2022-11-15T12:08:24;7.20;;;4.53;;
34571;SDS011;20808;48.974;8.452;2022-11-15T12:10:59;7.33;;;5.10;;
34571;SDS011;20808;48.974;8.452;2022-11-15T12:13:31;6.10;;;4.33;;
34571;SDS011;20808;48.974;8.452;2022-11-15T12:16:03;8.50;;;4.60;;
34571;SDS011;20808;48.974;8.452;2022-11-15T12:18:38;10.27;;;5.10;;
34571;SDS011;20808;48.974;8.452;2022-11-15T12:21:06;7.43;;;4.13;;
34571;SDS011;20808;48.974;8.452;2022-11-15T12:23:41;7.67;;;4.50;;
34571;SDS011;20808;48.974;8.452;2022-11-15T12:26:15;8.20;;;5.20;;
34571;SDS011;20808;48.974;8.452;2022-11-15T12:28:46;6.37;;;4.77;;
34571;SDS011;20808;48.974;8.452;2022-11-15T12:31:17;5.50;;;4.33;;
34571;SDS011;20808;48.974;8.452;2022-11-15T12:33:51;7.70;;;4.77;;
34571;SDS011;20808;48.974;8.452;2022-11-15T12:36:33;6.07;;;4.23;;
34571;SDS011;20808;48.974;8.452;2022-11-15T12:39:03;5.83;;;4.27;;
34571;SDS011;20808;48.974;8.452;2022-11-15T12:41:31;6.43;;;4.43;;
34571;SDS011;20808;48.974;8.452;2022-11-15T12:43:59;5.80;;;4.30;;
34571;SDS011;20808;48.974;8.452;2022-11-15T12:52:13;6.07;;;4.17;;
34571;SDS011;20808;48.974;8.452;2022-11-15T12:57:49;8.80;;;4.50;;
34571;SDS011;20808;48.974;8.452;2022-11-15T13:03:24;6.10;;;3.63;;
34571;SDS011;20808;48.974;8.452;2022-11-15T13:06:39;6.40;;;4.60;;
34571;SDS011;20808;48.974;8.452;2022-11-15T13:09:06;6.10;;;4.47;;
34571;SDS011;20808;48.974;8.452;2022-11-15T13:12:09;6.53;;;3.80;;
34571;SDS011;20808;48.974;8.452;2022-11-15T13:14:48;6.20;;;4.20;;
34571;SDS011;20808;48.974;8.452;2022-11-15T13:17:22;5.33;;;3.40;;
34571;SDS011;20808;48.974;8.452;2022-11-15T13:19:57;7.33;;;3.80;;
34571;SDS011;20808;48.974;8.452;2022-11-15T13:22:27;6.67;;;4.00;;
34571;SDS011;20808;48.974;8.452;2022-11-15T13:25:17;6.00;;;3.50;;
34571;SDS011;20808;48.974;8.452;2022-11-15T13:27:49;5.57;;;3.90;;
34571;SDS011;20808;48.974;8.452;2022-11-15T13:30:19;4.90;;;3.30;;
34571;SDS011;20808;48.974;8.452;2022-11-15T13:32:48;5.20;;;3.53;;
34571;SDS011;20808;48.974;8.452;2022-11-15T13:35:18;6.13;;;4.43;;
34571;SDS011;20808;48.974;8.452;2022-11-15T13:37:47;8.90;;;3.90;;
34571;SDS011;20808;48.974;8.452;2022-11-15T13:40:21;6.70;;;4.00;;
34571;SDS011;20808;48.974;8.452;2022-11-15T13:42:52;5.40;;;3.83;;
34571;SDS011;20808;48.974;8.452;2022-11-15T13:45:20;7.60;;;4.13;;
34571;SDS011;20808;48.974;8.452;2022-11-15T13:47:56;4.57;;;3.17;;
34571;SDS011;20808;48.974;8.452;2022-11-15T13:50:24;7.20;;;3.57;;
34571;SDS011;20808;48.974;8.452;2022-11-15T13:52:53;5.53;;;3.57;;
34571;SDS011;20808;48.974;8.452;2022-11-15T13:55:26;5.87;;;2.90;;
34571;SDS011;20808;48.974;8.452;2022-11-15T13:57:54;6.60;;;3.60;;
34571;SDS011;20808;48.974;8.452;2022-11-15T14:00:25;8.23;;;3.30;;
34571;SDS011;20808;48.974;8.452;2022-11-15T14:02:56;4.90;;;2.97;;
34571;SDS011;20808;48.974;8.452;2022-11-15T14:05:30;6.73;;;3.40;;
34571;SDS011;20808;48.974;8.452;2022-11-15T14:07:58;5.10;;;3.00;;
34571;SDS011;20808;48.974;8.452;2022-11-15T14:10:30;7.30;;;3.20;;
34571;SDS011;20808;48.974;8.452;2022-11-15T14:12:58;5.37;;;3.40;;
34571;SDS011;20808;48.974;8.452;2022-11-15T14:15:27;6.50;;;3.97;;
34571;SDS011;20808;48.974;8.452;2022-11-15T14:17:56;5.77;;;3.50;;
34571;SDS011;20808;48.974;8.452;2022-11-15T14:20:27;5.40;;;4.07;;
34571;SDS011;20808;48.974;8.452;2022-11-15T14:22:57;6.43;;;4.03;;
34571;SDS011;20808;48.974;8.452;2022-11-15T14:25:25;5.40;;;3.87;;
34571;SDS011;20808;48.974;8.452;2022-11-15T14:28:11;6.83;;;3.60;;
34571;SDS011;20808;48.974;8.452;2022-11-15T14:30:54;5.87;;;3.63;;
34571;SDS011;20808;48.974;8.452;2022-11-15T14:33:23;11.37;;;4.17;;
34571;SDS011;20808;48.974;8.452;2022-11-15T14:35:55;9.20;;;4.57;;
34571;SDS011;20808;48.974;8.452;2022-11-15T14:38:23;10.97;;;6.30;;
34571;SDS011;20808;48.974;8.452;2022-11-15T14:40:50;10.33;;;5.20;;
34571;SDS011;20808;48.974;8.452;2022-11-15T14:43:20;12.90;;;4.60;;
34571;SDS011;20808;48.974;8.452;2022-11-15T14:45:46;8.00;;;4.37;;
34571;SDS011;20808;48.974;8.452;2022-11-15T14:48:13;7.90;;;4.90;;
34571;SDS011;20808;48.974;8.452;2022-11-15T14:50:40;10.20;;;4.63;;
34571;SDS011;20808;48.974;8.452;2022-11-15T14:53:10;8.10;;;4.17;;
34571;SDS011;20808;48.974;8.452;2022-11-15T14:55:38;9.93;;;5.23;;
34571;SDS011;20808;48.974;8.452;2022-11-15T14:58:05;9.40;;;4.67;;
34571;SDS011;20808;48.974;8.452;2022-11-15T15:00:34;9.50;;;5.17;;
34571;SDS011;20808;48.974;8.452;2022-11-15T15:03:02;10.30;;;4.60;;
34571;SDS011;20808;48.974;8.452;2022-11-15T15:05:30;6.93;;;4.83;;
34571;SDS011;20808;48.974;8.452;2022-11-15T15:07:59;9.10;;;5.40;;
34571;SDS011;20808;48.974;8.452;2022-11-15T15:10:27;8.30;;;5.47;;
34571;SDS011;20808;48.974;8.452;2022-11-15T15:12:56;11.60;;;5.40;;
34571;SDS011;20808;48.974;8.452;2022-11-15T15:15:24;8.47;;;4.60;;
34571;SDS011;20808;48.974;8.452;2022-11-15T15:17:53;13.60;;;5.00;;
34571;SDS011;20808;48.974;8.452;2022-11-15T15:20:19;8.90;;;5.90;;
34571;SDS011;20808;48.974;8.452;2022-11-15T15:22:46;10.77;;;5.97;;
34571;SDS011;20808;48.974;8.452;2022-11-15T15:25:22;7.80;;;5.27;;